sensor_id;sensor_type;location;lat;lon;timestamp;P1;durP1;ratioP1;P2;durP2;ratioP2
53618;SDS011;68717;53.040;18.488;2024-03-23T00:52:24;17.13;;;5.68;;
53618;SDS011;68717;53.040;18.488;2024-03-23T00:53:05;16.80;;;6.80;;
53618;SDS011;68717;53.040;18.488;2024-03-23T00:53:18;17.35;;;6.50;;
53618;SDS011;68717;53.040;18.488;2024-03-23T00:53:44;17.17;;;6.15;;
53618;SDS011;68717;53.040;18.488;2024-03-23T00:53:56;18.33;;;5.90;;
53618;SDS011;68717;53.040;18.488;2024-03-23T00:54:09;18.67;;;5.97;;
53618;SDS011;68717;53.040;18.488;2024-03-23T00:54:21;19.42;;;6.05;;
53618;SDS011;68717;53.040;18.488;2024-03-23T00:54:33;17.38;;;6.00;;
53618;SDS011;68717;53.040;18.488;2024-03-23T00:54:44;16.77;;;5.78;;
53618;SDS011;68717;53.040;18.488;2024-03-23T00:54:56;17.10;;;5.70;;
53618;SDS011;68717;53.040;18.488;2024-03-23T00:55:08;17.48;;;6.28;;
53618;SDS011;68717;53.040;18.488;2024-03-23T00:55:20;16.70;;;6.45;;
53618;SDS011;68717;53.040;18.488;2024-03-23T00:55:32;16.35;;;6.30;;
53618;SDS011;68717;53.040;18.488;2024-03-23T00:55:44;14.30;;;5.97;;
53618;SDS011;68717;53.040;18.488;2024-03-23T00:55:56;14.88;;;5.90;;
53618;SDS011;68717;53.040;18.488;2024-03-23T00:56:08;15.60;;;6.05;;
53618;SDS011;68717;53.040;18.488;2024-03-23T00:56:21;16.92;;;5.95;;
53618;SDS011;68717;53.040;18.488;2024-03-23T00:56:33;17.60;;;6.05;;
53618;SDS011;68717;53.040;18.488;2024-03-23T00:56:45;17.20;;;6.15;;
53618;SDS011;68717;53.040;18.488;2024-03-23T00:56:57;17.15;;;6.07;;
53618;SDS011;68717;53.040;18.488;2024-03-23T00:57:08;17.42;;;6.13;;
53618;SDS011;68717;53.040;18.488;2024-03-23T00:57:21;17.30;;;5.78;;
53618;SDS011;68717;53.040;18.488;2024-03-23T00:57:32;16.08;;;5.60;;
53618;SDS011;68717;53.040;18.488;2024-03-23T00:57:44;16.63;;;5.60;;
53618;SDS011;68717;53.040;18.488;2024-03-23T00:57:56;17.00;;;5.57;;
53618;SDS011;68717;53.040;18.488;2024-03-23T00:58:08;15.73;;;5.53;;
53618;SDS011;68717;53.040;18.488;2024-03-23T00:58:21;15.48;;;5.97;;
53618;SDS011;68717;53.040;18.488;2024-03-23T00:58:33;16.48;;;6.07;;
53618;SDS011;68717;53.040;18.488;2024-03-23T00:58:45;17.52;;;5.82;;
53618;SDS011;68717;53.040;18.488;2024-03-23T00:58:57;15.82;;;5.53;;
53618;SDS011;68717;53.040;18.488;2024-03-23T00:59:09;17.23;;;5.93;;
53618;SDS011;68717;53.040;18.488;2024-03-23T00:59:22;17.55;;;6.07;;
53618;SDS011;68717;53.040;18.488;2024-03-23T00:59:38;16.52;;;5.82;;
53618;SDS011;68717;53.040;18.488;2024-03-23T00:59:50;16.23;;;5.70;;
53618;SDS011;68717;53.040;18.488;2024-03-23T01:00:02;16.70;;;5.65;;
53618;SDS011;68717;53.040;18.488;2024-03-23T01:00:17;15.02;;;5.38;;
53618;SDS011;68717;53.040;18.488;2024-03-23T01:00:29;16.77;;;5.43;;
53618;SDS011;68717;53.040;18.488;2024-03-23T01:00:41;17.20;;;5.45;;
53618;SDS011;68717;53.040;18.488;2024-03-23T01:00:53;19.08;;;5.50;;
53618;SDS011;68717;53.040;18.488;2024-03-23T01:01:05;17.45;;;5.50;;
53618;SDS011;68717;53.040;18.488;2024-03-23T01:01:17;17.73;;;5.50;;
53618;SDS011;68717;53.040;18.488;2024-03-23T01:01:29;17.10;;;5.68;;
53618;SDS011;68717;53.040;18.488;2024-03-23T01:01:41;15.82;;;5.45;;
53618;SDS011;68717;53.040;18.488;2024-03-23T01:01:52;15.80;;;5.55;;
53618;SDS011;68717;53.040;18.488;2024-03-23T01:02:04;15.70;;;5.25;;
53618;SDS011;68717;53.040;18.488;2024-03-23T01:02:16;17.02;;;5.68;;
53618;SDS011;68717;53.040;18.488;2024-03-23T01:02:29;19.25;;;5.78;;
53618;SDS011;68717;53.040;18.488;2024-03-23T01:02:41;18.35;;;5.45;;
53618;SDS011;68717;53.040;18.488;2024-03-23T01:02:52;16.10;;;5.30;;
53618;SDS011;68717;53.040;18.488;2024-03-23T01:03:04;17.20;;;5.38;;
53618;SDS011;68717;53.040;18.488;2024-03-23T01:03:17;16.67;;;5.25;;
53618;SDS011;68717;53.040;18.488;2024-03-23T01:03:29;15.00;;;4.95;;
53618;SDS011;68717;53.040;18.488;2024-03-23T01:03:41;15.52;;;5.20;;
53618;SDS011;68717;53.040;18.488;2024-03-23T01:03:53;15.98;;;5.18;;
53618;SDS011;68717;53.040;18.488;2024-03-23T01:04:05;16.40;;;5.13;;
53618;SDS011;68717;53.040;18.488;2024-03-23T01:04:17;16.67;;;5.30;;
53618;SDS011;68717;53.040;18.488;2024-03-23T01:04:29;16.42;;;5.38;;
53618;SDS011;68717;53.040;18.488;2024-03-23T01:04:41;16.30;;;5.30;;
53618;SDS011;68717;53.040;18.488;2024-03-23T01:04:53;15.48;;;4.88;;
53618;SDS011;68717;53.040;18.488;2024-03-23T01:05:05;17.98;;;4.90;;
53618;SDS011;68717;53.040;18.488;2024-03-23T01:05:17;18.02;;;5.00;;
53618;SDS011;68717;53.040;18.488;2024-03-23T01:05:29;16.90;;;5.03;;
53618;SDS011;68717;53.040;18.488;2024-03-23T01:05:41;15.52;;;4.70;;
53618;SDS011;68717;53.040;18.488;2024-03-23T01:05:52;15.30;;;4.60;;
53618;SDS011;68717;53.040;18.488;2024-03-23T01:06:05;14.82;;;4.60;;
53618;SDS011;68717;53.040;18.488;2024-03-23T01:06:17;14.93;;;4.78;;
53618;SDS011;68717;53.040;18.488;2024-03-23T01:06:30;13.43;;;4.65;;
53618;SDS011;68717;53.040;18.488;2024-03-23T01:06:42;13.25;;;4.65;;
53618;SDS011;68717;53.040;18.488;2024-03-23T01:06:58;14.45;;;4.93;;
53618;SDS011;68717;53.040;18.488;2024-03-23T01:07:10;13.05;;;4.85;;
53618;SDS011;68717;53.040;18.488;2024-03-23T01:07:24;13.60;;;4.68;;
53618;SDS011;68717;53.040;18.488;2024-03-23T01:07:36;15.27;;;4.78;;
53618;SDS011;68717;53.040;18.488;2024-03-23T01:07:48;15.30;;;4.68;;
53618;SDS011;68717;53.040;18.488;2024-03-23T01:08:00;16.02;;;4.68;;
53618;SDS011;68717;53.040;18.488;2024-03-23T01:08:12;17.60;;;4.80;;
53618;SDS011;68717;53.040;18.488;2024-03-23T01:08:24;16.75;;;4.78;;
53618;SDS011;68717;53.040;18.488;2024-03-23T01:08:36;15.43;;;4.60;;
53618;SDS011;68717;53.040;18.488;2024-03-23T01:08:48;15.57;;;4.57;;
53618;SDS011;68717;53.040;18.488;2024-03-23T01:09:00;18.15;;;4.78;;
53618;SDS011;68717;53.040;18.488;2024-03-23T01:09:12;19.50;;;4.82;;
53618;SDS011;68717;53.040;18.488;2024-03-23T01:09:24;19.25;;;4.78;;
53618;SDS011;68717;53.040;18.488;2024-03-23T01:09:37;18.35;;;4.80;;
53618;SDS011;68717;53.040;18.488;2024-03-23T01:09:50;16.75;;;4.65;;
53618;SDS011;68717;53.040;18.488;2024-03-23T01:10:03;17.80;;;4.97;;
53618;SDS011;68717;53.040;18.488;2024-03-23T01:10:16;17.13;;;5.15;;
53618;SDS011;68717;53.040;18.488;2024-03-23T01:10:28;17.00;;;5.25;;
53618;SDS011;68717;53.040;18.488;2024-03-23T01:10:40;17.27;;;4.90;;
53618;SDS011;68717;53.040;18.488;2024-03-23T01:10:55;20.20;;;5.18;;
53618;SDS011;68717;53.040;18.488;2024-03-23T01:11:07;21.38;;;5.30;;
53618;SDS011;68717;53.040;18.488;2024-03-23T01:11:19;20.77;;;5.15;;
53618;SDS011;68717;53.040;18.488;2024-03-23T01:11:31;19.58;;;5.05;;
53618;SDS011;68717;53.040;18.488;2024-03-23T01:11:43;18.75;;;5.05;;
53618;SDS011;68717;53.040;18.488;2024-03-23T01:11:55;17.17;;;4.97;;
53618;SDS011;68717;53.040;18.488;2024-03-23T01:12:07;16.35;;;5.13;;
53618;SDS011;68717;53.040;18.488;2024-03-23T01:12:19;15.77;;;4.95;;
53618;SDS011;68717;53.040;18.488;2024-03-23T01:12:31;15.25;;;4.82;;
53618;SDS011;68717;53.040;18.488;2024-03-23T01:12:43;14.60;;;4.72;;
53618;SDS011;68717;53.040;18.488;2024-03-23T01:12:55;14.32;;;4.65;;
53618;SDS011;68717;53.040;18.488;2024-03-23T01:13:08;14.25;;;4.28;;
53618;SDS011;68717;53.040;18.488;2024-03-23T01:13:20;14.27;;;4.20;;
53618;SDS011;68717;53.040;18.488;2024-03-23T01:13:33;13.30;;;4.10;;
53618;SDS011;68717;53.040;18.488;2024-03-23T01:13:45;16.92;;;4.60;;
53618;SDS011;68717;53.040;18.488;2024-03-23T01:13:57;19.38;;;4.78;;
53618;SDS011;68717;53.040;18.488;2024-03-23T01:14:09;18.63;;;4.70;;
53618;SDS011;68717;53.040;18.488;2024-03-23T01:14:21;15.73;;;4.65;;
53618;SDS011;68717;53.040;18.488;2024-03-23T01:14:33;15.40;;;4.60;;
53618;SDS011;68717;53.040;18.488;2024-03-23T01:14:47;16.90;;;4.75;;
53618;SDS011;68717;53.040;18.488;2024-03-23T01:14:59;15.48;;;4.50;;
53618;SDS011;68717;53.040;18.488;2024-03-23T01:15:10;13.80;;;4.35;;
53618;SDS011;68717;53.040;18.488;2024-03-23T01:15:22;13.55;;;4.30;;
53618;SDS011;68717;53.040;18.488;2024-03-23T01:15:34;14.77;;;4.43;;
53618;SDS011;68717;53.040;18.488;2024-03-23T01:15:47;14.45;;;4.40;;
53618;SDS011;68717;53.040;18.488;2024-03-23T01:16:00;13.93;;;4.30;;
53618;SDS011;68717;53.040;18.488;2024-03-23T01:16:12;15.90;;;4.38;;
53618;SDS011;68717;53.040;18.488;2024-03-23T01:16:24;20.60;;;4.57;;
53618;SDS011;68717;53.040;18.488;2024-03-23T01:16:37;21.50;;;4.65;;
53618;SDS011;68717;53.040;18.488;2024-03-23T01:16:49;18.75;;;4.63;;
53618;SDS011;68717;53.040;18.488;2024-03-23T01:17:01;16.77;;;4.75;;
53618;SDS011;68717;53.040;18.488;2024-03-23T01:17:13;16.50;;;4.60;;
53618;SDS011;68717;53.040;18.488;2024-03-23T01:17:25;14.25;;;4.20;;
53618;SDS011;68717;53.040;18.488;2024-03-23T01:17:37;15.57;;;3.80;;
53618;SDS011;68717;53.040;18.488;2024-03-23T01:17:49;14.98;;;3.88;;
53618;SDS011;68717;53.040;18.488;2024-03-23T01:18:01;15.45;;;4.03;;
53618;SDS011;68717;53.040;18.488;2024-03-23T01:18:13;16.70;;;4.05;;
53618;SDS011;68717;53.040;18.488;2024-03-23T01:18:25;18.65;;;4.10;;
53618;SDS011;68717;53.040;18.488;2024-03-23T01:18:37;18.52;;;4.07;;
53618;SDS011;68717;53.040;18.488;2024-03-23T01:18:49;16.40;;;4.03;;
53618;SDS011;68717;53.040;18.488;2024-03-23T01:19:01;13.00;;;3.90;;
53618;SDS011;68717;53.040;18.488;2024-03-23T01:19:13;14.15;;;4.10;;
53618;SDS011;68717;53.040;18.488;2024-03-23T01:19:25;14.48;;;4.22;;
53618;SDS011;68717;53.040;18.488;2024-03-23T01:19:37;12.35;;;4.20;;
53618;SDS011;68717;53.040;18.488;2024-03-23T01:19:50;14.35;;;4.30;;
53618;SDS011;68717;53.040;18.488;2024-03-23T01:20:04;16.02;;;4.20;;
53618;SDS011;68717;53.040;18.488;2024-03-23T01:20:17;17.08;;;4.25;;
53618;SDS011;68717;53.040;18.488;2024-03-23T01:20:29;16.30;;;4.10;;
53618;SDS011;68717;53.040;18.488;2024-03-23T01:20:41;14.57;;;3.90;;
53618;SDS011;68717;53.040;18.488;2024-03-23T01:20:53;16.20;;;4.03;;
53618;SDS011;68717;53.040;18.488;2024-03-23T01:21:05;17.25;;;4.10;;
53618;SDS011;68717;53.040;18.488;2024-03-23T01:21:17;18.88;;;4.38;;
53618;SDS011;68717;53.040;18.488;2024-03-23T01:21:29;17.73;;;4.43;;
53618;SDS011;68717;53.040;18.488;2024-03-23T01:21:40;16.83;;;4.70;;
53618;SDS011;68717;53.040;18.488;2024-03-23T01:21:55;17.88;;;4.70;;
53618;SDS011;68717;53.040;18.488;2024-03-23T01:22:07;16.08;;;4.43;;
53618;SDS011;68717;53.040;18.488;2024-03-23T01:22:21;14.55;;;4.30;;
53618;SDS011;68717;53.040;18.488;2024-03-23T01:22:33;14.90;;;4.50;;
53618;SDS011;68717;53.040;18.488;2024-03-23T01:22:45;15.02;;;4.57;;
53618;SDS011;68717;53.040;18.488;2024-03-23T01:22:56;15.27;;;4.47;;
53618;SDS011;68717;53.040;18.488;2024-03-23T01:23:09;13.38;;;4.15;;
53618;SDS011;68717;53.040;18.488;2024-03-23T01:23:21;13.80;;;4.10;;
53618;SDS011;68717;53.040;18.488;2024-03-23T01:23:33;15.25;;;4.07;;
53618;SDS011;68717;53.040;18.488;2024-03-23T01:23:45;16.98;;;4.18;;
53618;SDS011;68717;53.040;18.488;2024-03-23T01:23:57;16.48;;;4.10;;
53618;SDS011;68717;53.040;18.488;2024-03-23T01:24:09;16.27;;;4.10;;
53618;SDS011;68717;53.040;18.488;2024-03-23T01:24:22;15.80;;;4.45;;
53618;SDS011;68717;53.040;18.488;2024-03-23T01:24:34;15.30;;;4.53;;
53618;SDS011;68717;53.040;18.488;2024-03-23T01:24:45;15.77;;;4.45;;
53618;SDS011;68717;53.040;18.488;2024-03-23T01:24:57;16.02;;;4.40;;
53618;SDS011;68717;53.040;18.488;2024-03-23T01:25:09;16.60;;;4.53;;
53618;SDS011;68717;53.040;18.488;2024-03-23T01:25:22;18.95;;;4.47;;
53618;SDS011;68717;53.040;18.488;2024-03-23T01:25:34;19.58;;;4.80;;
53618;SDS011;68717;53.040;18.488;2024-03-23T01:25:51;19.73;;;5.10;;
53618;SDS011;68717;53.040;18.488;2024-03-23T01:26:04;17.50;;;4.78;;
53618;SDS011;68717;53.040;18.488;2024-03-23T01:26:15;14.75;;;4.53;;
53618;SDS011;68717;53.040;18.488;2024-03-23T01:26:27;15.88;;;4.50;;
53618;SDS011;68717;53.040;18.488;2024-03-23T01:26:40;16.38;;;4.60;;
53618;SDS011;68717;53.040;18.488;2024-03-23T01:26:52;17.05;;;4.85;;
53618;SDS011;68717;53.040;18.488;2024-03-23T01:27:04;16.90;;;4.90;;
53618;SDS011;68717;53.040;18.488;2024-03-23T01:27:16;16.65;;;4.68;;
53618;SDS011;68717;53.040;18.488;2024-03-23T01:27:29;17.42;;;4.50;;
53618;SDS011;68717;53.040;18.488;2024-03-23T01:27:41;18.95;;;4.75;;
53618;SDS011;68717;53.040;18.488;2024-03-23T01:27:53;17.33;;;5.03;;
53618;SDS011;68717;53.040;18.488;2024-03-23T01:28:05;17.10;;;4.88;;
53618;SDS011;68717;53.040;18.488;2024-03-23T01:28:17;17.65;;;4.65;;
53618;SDS011;68717;53.040;18.488;2024-03-23T01:28:29;17.77;;;4.60;;
53618;SDS011;68717;53.040;18.488;2024-03-23T01:28:41;18.73;;;4.88;;
53618;SDS011;68717;53.040;18.488;2024-03-23T01:28:53;18.05;;;4.75;;
53618;SDS011;68717;53.040;18.488;2024-03-23T01:29:05;17.00;;;4.55;;
53618;SDS011;68717;53.040;18.488;2024-03-23T01:29:17;15.88;;;4.47;;
53618;SDS011;68717;53.040;18.488;2024-03-23T01:29:29;15.57;;;4.30;;
53618;SDS011;68717;53.040;18.488;2024-03-23T01:29:42;16.02;;;4.53;;
53618;SDS011;68717;53.040;18.488;2024-03-23T01:29:54;16.58;;;4.66;;
53618;SDS011;68717;53.040;18.488;2024-03-23T01:30:06;17.65;;;4.80;;
53618;SDS011;68717;53.040;18.488;2024-03-23T01:30:18;18.30;;;5.10;;
53618;SDS011;68717;53.040;18.488;2024-03-23T01:30:31;15.95;;;4.55;;
53618;SDS011;68717;53.040;18.488;2024-03-23T01:30:43;17.83;;;4.47;;
53618;SDS011;68717;53.040;18.488;2024-03-23T01:30:55;17.40;;;4.25;;
53618;SDS011;68717;53.040;18.488;2024-03-23T01:31:08;15.13;;;4.13;;
53618;SDS011;68717;53.040;18.488;2024-03-23T01:31:20;16.60;;;4.40;;
53618;SDS011;68717;53.040;18.488;2024-03-23T01:31:32;19.85;;;4.85;;
53618;SDS011;68717;53.040;18.488;2024-03-23T01:31:44;18.98;;;4.63;;
53618;SDS011;68717;53.040;18.488;2024-03-23T01:31:57;15.73;;;4.30;;
53618;SDS011;68717;53.040;18.488;2024-03-23T01:32:08;15.93;;;4.22;;
53618;SDS011;68717;53.040;18.488;2024-03-23T01:32:20;17.23;;;4.25;;
53618;SDS011;68717;53.040;18.488;2024-03-23T01:32:34;17.38;;;4.10;;
53618;SDS011;68717;53.040;18.488;2024-03-23T01:32:46;14.80;;;4.03;;
53618;SDS011;68717;53.040;18.488;2024-03-23T01:32:58;15.45;;;4.18;;
53618;SDS011;68717;53.040;18.488;2024-03-23T01:33:11;16.00;;;4.28;;
53618;SDS011;68717;53.040;18.488;2024-03-23T01:33:23;15.55;;;4.43;;
53618;SDS011;68717;53.040;18.488;2024-03-23T01:33:35;16.83;;;4.45;;
53618;SDS011;68717;53.040;18.488;2024-03-23T01:33:47;17.40;;;4.07;;
53618;SDS011;68717;53.040;18.488;2024-03-23T01:33:59;17.48;;;4.18;;
53618;SDS011;68717;53.040;18.488;2024-03-23T01:34:11;16.50;;;4.28;;
53618;SDS011;68717;53.040;18.488;2024-03-23T01:34:23;16.35;;;4.13;;
53618;SDS011;68717;53.040;18.488;2024-03-23T01:34:36;15.00;;;3.80;;
53618;SDS011;68717;53.040;18.488;2024-03-23T01:34:48;15.35;;;3.80;;
53618;SDS011;68717;53.040;18.488;2024-03-23T01:35:00;16.05;;;3.80;;
53618;SDS011;68717;53.040;18.488;2024-03-23T01:35:12;18.38;;;3.92;;
53618;SDS011;68717;53.040;18.488;2024-03-23T01:35:24;16.98;;;4.00;;
53618;SDS011;68717;53.040;18.488;2024-03-23T01:35:36;15.98;;;3.97;;
53618;SDS011;68717;53.040;18.488;2024-03-23T01:35:48;14.15;;;3.80;;
53618;SDS011;68717;53.040;18.488;2024-03-23T01:35:59;15.82;;;3.90;;
53618;SDS011;68717;53.040;18.488;2024-03-23T01:36:11;16.75;;;4.20;;
53618;SDS011;68717;53.040;18.488;2024-03-23T01:36:23;17.30;;;4.20;;
53618;SDS011;68717;53.040;18.488;2024-03-23T01:36:35;15.85;;;3.90;;
53618;SDS011;68717;53.040;18.488;2024-03-23T01:36:47;16.65;;;3.95;;
53618;SDS011;68717;53.040;18.488;2024-03-23T01:37:01;17.30;;;4.28;;
53618;SDS011;68717;53.040;18.488;2024-03-23T01:37:13;17.65;;;4.47;;
53618;SDS011;68717;53.040;18.488;2024-03-23T01:37:26;17.38;;;4.35;;
53618;SDS011;68717;53.040;18.488;2024-03-23T01:37:38;15.73;;;4.20;;
53618;SDS011;68717;53.040;18.488;2024-03-23T01:37:51;15.40;;;4.10;;
53618;SDS011;68717;53.040;18.488;2024-03-23T01:38:03;16.10;;;4.10;;
53618;SDS011;68717;53.040;18.488;2024-03-23T01:38:15;16.38;;;3.90;;
53618;SDS011;68717;53.040;18.488;2024-03-23T01:38:27;16.48;;;3.88;;
53618;SDS011;68717;53.040;18.488;2024-03-23T01:38:39;17.02;;;3.85;;
53618;SDS011;68717;53.040;18.488;2024-03-23T01:38:52;17.80;;;4.10;;
53618;SDS011;68717;53.040;18.488;2024-03-23T01:39:03;18.70;;;4.25;;
53618;SDS011;68717;53.040;18.488;2024-03-23T01:39:15;18.23;;;4.10;;
53618;SDS011;68717;53.040;18.488;2024-03-23T01:39:28;17.83;;;4.05;;
53618;SDS011;68717;53.040;18.488;2024-03-23T01:39:40;17.85;;;3.97;;
53618;SDS011;68717;53.040;18.488;2024-03-23T01:39:52;15.52;;;4.03;;
53618;SDS011;68717;53.040;18.488;2024-03-23T01:40:04;15.60;;;3.83;;
53618;SDS011;68717;53.040;18.488;2024-03-23T01:40:17;16.42;;;3.70;;
53618;SDS011;68717;53.040;18.488;2024-03-23T01:40:29;16.42;;;3.95;;
53618;SDS011;68717;53.040;18.488;2024-03-23T01:40:43;17.30;;;4.20;;
53618;SDS011;68717;53.040;18.488;2024-03-23T01:40:58;17.95;;;4.25;;
53618;SDS011;68717;53.040;18.488;2024-03-23T01:41:10;17.33;;;4.30;;
53618;SDS011;68717;53.040;18.488;2024-03-23T01:41:23;15.73;;;4.10;;
53618;SDS011;68717;53.040;18.488;2024-03-23T01:41:35;14.80;;;4.00;;
53618;SDS011;68717;53.040;18.488;2024-03-23T01:41:48;15.40;;;4.35;;
53618;SDS011;68717;53.040;18.488;2024-03-23T01:42:01;15.88;;;4.25;;
53618;SDS011;68717;53.040;18.488;2024-03-23T01:42:15;13.88;;;4.20;;
53618;SDS011;68717;53.040;18.488;2024-03-23T01:42:27;15.68;;;4.30;;
53618;SDS011;68717;53.040;18.488;2024-03-23T01:42:39;15.88;;;4.25;;
53618;SDS011;68717;53.040;18.488;2024-03-23T01:42:56;15.15;;;3.88;;
53618;SDS011;68717;53.040;18.488;2024-03-23T01:43:09;15.85;;;4.10;;
53618;SDS011;68717;53.040;18.488;2024-03-23T01:43:21;16.80;;;4.18;;
53618;SDS011;68717;53.040;18.488;2024-03-23T01:43:33;15.10;;;4.00;;
53618;SDS011;68717;53.040;18.488;2024-03-23T01:43:45;14.15;;;4.18;;
53618;SDS011;68717;53.040;18.488;2024-03-23T01:43:57;14.93;;;4.03;;
53618;SDS011;68717;53.040;18.488;2024-03-23T01:44:10;17.75;;;4.20;;
53618;SDS011;68717;53.040;18.488;2024-03-23T01:44:22;17.45;;;4.03;;
53618;SDS011;68717;53.040;18.488;2024-03-23T01:44:34;15.57;;;4.00;;
53618;SDS011;68717;53.040;18.488;2024-03-23T01:44:46;16.20;;;3.65;;
53618;SDS011;68717;53.040;18.488;2024-03-23T01:44:58;17.17;;;4.00;;
53618;SDS011;68717;53.040;18.488;2024-03-23T01:45:10;18.20;;;4.25;;
53618;SDS011;68717;53.040;18.488;2024-03-23T01:45:22;16.52;;;4.15;;
53618;SDS011;68717;53.040;18.488;2024-03-23T01:45:34;15.98;;;4.22;;
53618;SDS011;68717;53.040;18.488;2024-03-23T01:45:47;15.43;;;4.32;;
53618;SDS011;68717;53.040;18.488;2024-03-23T01:45:58;16.80;;;4.30;;
53618;SDS011;68717;53.040;18.488;2024-03-23T01:46:10;18.42;;;4.00;;
53618;SDS011;68717;53.040;18.488;2024-03-23T01:46:23;18.30;;;4.10;;
53618;SDS011;68717;53.040;18.488;2024-03-23T01:46:34;18.58;;;4.22;;
53618;SDS011;68717;53.040;18.488;2024-03-23T01:46:48;16.13;;;4.25;;
53618;SDS011;68717;53.040;18.488;2024-03-23T01:47:00;14.10;;;4.32;;
53618;SDS011;68717;53.040;18.488;2024-03-23T01:47:12;14.25;;;4.13;;
53618;SDS011;68717;53.040;18.488;2024-03-23T01:47:24;15.52;;;4.32;;
53618;SDS011;68717;53.040;18.488;2024-03-23T01:47:36;17.38;;;4.40;;
53618;SDS011;68717;53.040;18.488;2024-03-23T01:47:49;18.95;;;4.30;;
53618;SDS011;68717;53.040;18.488;2024-03-23T01:48:02;17.35;;;4.43;;
53618;SDS011;68717;53.040;18.488;2024-03-23T01:48:14;17.55;;;4.60;;
53618;SDS011;68717;53.040;18.488;2024-03-23T01:48:26;15.93;;;4.32;;
53618;SDS011;68717;53.040;18.488;2024-03-23T01:48:38;18.67;;;4.57;;
53618;SDS011;68717;53.040;18.488;2024-03-23T01:48:50;18.77;;;4.50;;
53618;SDS011;68717;53.040;18.488;2024-03-23T01:49:02;17.75;;;4.40;;
53618;SDS011;68717;53.040;18.488;2024-03-23T01:49:16;18.00;;;4.20;;
53618;SDS011;68717;53.040;18.488;2024-03-23T01:49:27;18.27;;;4.40;;
53618;SDS011;68717;53.040;18.488;2024-03-23T01:49:39;17.88;;;4.47;;
53618;SDS011;68717;53.040;18.488;2024-03-23T01:49:51;18.98;;;4.15;;
53618;SDS011;68717;53.040;18.488;2024-03-23T01:50:05;17.20;;;4.03;;
53618;SDS011;68717;53.040;18.488;2024-03-23T01:50:18;13.65;;;4.00;;
53618;SDS011;68717;53.040;18.488;2024-03-23T01:50:30;14.85;;;4.32;;
53618;SDS011;68717;53.040;18.488;2024-03-23T01:50:45;16.40;;;4.57;;
53618;SDS011;68717;53.040;18.488;2024-03-23T01:50:57;15.60;;;4.45;;
53618;SDS011;68717;53.040;18.488;2024-03-23T01:51:10;15.75;;;4.60;;
53618;SDS011;68717;53.040;18.488;2024-03-23T01:51:23;17.48;;;4.32;;
53618;SDS011;68717;53.040;18.488;2024-03-23T01:51:35;17.40;;;4.25;;
53618;SDS011;68717;53.040;18.488;2024-03-23T01:51:48;17.20;;;4.32;;
53618;SDS011;68717;53.040;18.488;2024-03-23T01:52:02;19.02;;;4.43;;
53618;SDS011;68717;53.040;18.488;2024-03-23T01:52:15;19.13;;;4.47;;
53618;SDS011;68717;53.040;18.488;2024-03-23T01:52:27;15.27;;;4.35;;
53618;SDS011;68717;53.040;18.488;2024-03-23T01:52:39;16.10;;;4.50;;
53618;SDS011;68717;53.040;18.488;2024-03-23T01:52:51;16.63;;;4.70;;
53618;SDS011;68717;53.040;18.488;2024-03-23T01:53:03;16.27;;;4.65;;
53618;SDS011;68717;53.040;18.488;2024-03-23T01:53:17;16.23;;;4.55;;
53618;SDS011;68717;53.040;18.488;2024-03-23T01:53:32;17.15;;;4.60;;
53618;SDS011;68717;53.040;18.488;2024-03-23T01:53:44;17.95;;;4.25;;
53618;SDS011;68717;53.040;18.488;2024-03-23T01:53:56;18.58;;;4.05;;
53618;SDS011;68717;53.040;18.488;2024-03-23T01:54:09;18.38;;;4.15;;
53618;SDS011;68717;53.040;18.488;2024-03-23T01:54:21;17.15;;;4.30;;
53618;SDS011;68717;53.040;18.488;2024-03-23T01:54:34;16.52;;;4.53;;
53618;SDS011;68717;53.040;18.488;2024-03-23T01:54:47;16.40;;;4.22;;
53618;SDS011;68717;53.040;18.488;2024-03-23T01:54:59;16.80;;;4.15;;
53618;SDS011;68717;53.040;18.488;2024-03-23T01:55:12;17.50;;;4.35;;
53618;SDS011;68717;53.040;18.488;2024-03-23T01:55:24;18.50;;;4.60;;
53618;SDS011;68717;53.040;18.488;2024-03-23T01:55:36;18.67;;;4.38;;
53618;SDS011;68717;53.040;18.488;2024-03-23T01:55:48;15.45;;;4.28;;
53618;SDS011;68717;53.040;18.488;2024-03-23T01:56:02;13.68;;;4.32;;
53618;SDS011;68717;53.040;18.488;2024-03-23T01:56:14;15.48;;;4.50;;
53618;SDS011;68717;53.040;18.488;2024-03-23T01:56:27;15.63;;;4.32;;
53618;SDS011;68717;53.040;18.488;2024-03-23T01:56:39;15.45;;;4.20;;
53618;SDS011;68717;53.040;18.488;2024-03-23T01:56:50;15.15;;;4.32;;
53618;SDS011;68717;53.040;18.488;2024-03-23T01:57:02;15.77;;;4.53;;
53618;SDS011;68717;53.040;18.488;2024-03-23T01:57:15;15.20;;;4.45;;
53618;SDS011;68717;53.040;18.488;2024-03-23T01:57:27;14.60;;;4.25;;
53618;SDS011;68717;53.040;18.488;2024-03-23T01:57:39;15.10;;;4.45;;
53618;SDS011;68717;53.040;18.488;2024-03-23T01:57:51;15.38;;;4.40;;
53618;SDS011;68717;53.040;18.488;2024-03-23T01:58:04;14.93;;;4.20;;
53618;SDS011;68717;53.040;18.488;2024-03-23T01:58:17;14.25;;;4.25;;
53618;SDS011;68717;53.040;18.488;2024-03-23T01:58:29;14.57;;;4.22;;
53618;SDS011;68717;53.040;18.488;2024-03-23T01:58:42;15.75;;;4.20;;
53618;SDS011;68717;53.040;18.488;2024-03-23T01:58:54;16.25;;;4.30;;
53618;SDS011;68717;53.040;18.488;2024-03-23T01:59:06;16.67;;;4.30;;
53618;SDS011;68717;53.040;18.488;2024-03-23T01:59:18;18.73;;;4.38;;
53618;SDS011;68717;53.040;18.488;2024-03-23T01:59:30;19.35;;;4.18;;
53618;SDS011;68717;53.040;18.488;2024-03-23T01:59:42;18.35;;;4.30;;
53618;SDS011;68717;53.040;18.488;2024-03-23T01:59:54;17.58;;;4.22;;
53618;SDS011;68717;53.040;18.488;2024-03-23T02:00:06;16.42;;;4.38;;
53618;SDS011;68717;53.040;18.488;2024-03-23T02:00:19;16.40;;;4.28;;
53618;SDS011;68717;53.040;18.488;2024-03-23T02:00:31;13.98;;;4.00;;
53618;SDS011;68717;53.040;18.488;2024-03-23T02:00:43;12.85;;;3.88;;
53618;SDS011;68717;53.040;18.488;2024-03-23T02:00:55;13.10;;;3.95;;
53618;SDS011;68717;53.040;18.488;2024-03-23T02:01:09;14.20;;;3.90;;
53618;SDS011;68717;53.040;18.488;2024-03-23T02:01:21;17.40;;;4.15;;
53618;SDS011;68717;53.040;18.488;2024-03-23T02:01:34;15.70;;;4.13;;
53618;SDS011;68717;53.040;18.488;2024-03-23T02:01:47;16.05;;;4.25;;
53618;SDS011;68717;53.040;18.488;2024-03-23T02:02:00;16.20;;;4.18;;
53618;SDS011;68717;53.040;18.488;2024-03-23T02:02:12;14.43;;;4.18;;
53618;SDS011;68717;53.040;18.488;2024-03-23T02:02:24;15.60;;;4.07;;
53618;SDS011;68717;53.040;18.488;2024-03-23T02:02:36;15.32;;;3.85;;
53618;SDS011;68717;53.040;18.488;2024-03-23T02:02:52;13.23;;;3.70;;
53618;SDS011;68717;53.040;18.488;2024-03-23T02:03:13;13.63;;;3.80;;
53618;SDS011;68717;53.040;18.488;2024-03-23T02:03:33;18.20;;;3.97;;
53618;SDS011;68717;53.040;18.488;2024-03-23T02:03:45;15.70;;;3.85;;
53618;SDS011;68717;53.040;18.488;2024-03-23T02:03:57;14.68;;;3.80;;
53618;SDS011;68717;53.040;18.488;2024-03-23T02:04:09;15.30;;;3.70;;
53618;SDS011;68717;53.040;18.488;2024-03-23T02:04:21;14.88;;;3.83;;
53618;SDS011;68717;53.040;18.488;2024-03-23T02:04:33;14.10;;;3.80;;
53618;SDS011;68717;53.040;18.488;2024-03-23T02:04:45;13.27;;;3.53;;
53618;SDS011;68717;53.040;18.488;2024-03-23T02:04:57;16.52;;;3.75;;
53618;SDS011;68717;53.040;18.488;2024-03-23T02:05:09;17.45;;;4.00;;
53618;SDS011;68717;53.040;18.488;2024-03-23T02:05:22;18.52;;;4.13;;